createdAt,value
2023-05-09T00:00:31.027Z,15.63
2023-05-09T00:02:58.117Z,15.70
2023-05-09T00:05:25.177Z,15.79
2023-05-09T00:07:52.257Z,15.70
2023-05-09T00:10:19.251Z,15.65
2023-05-09T00:12:47.370Z,15.36
2023-05-09T00:15:14.522Z,15.37
2023-05-09T00:17:41.911Z,15.37
2023-05-09T00:20:12.238Z,15.42
2023-05-09T00:22:41.061Z,15.37
2023-05-09T00:25:11.916Z,15.09
2023-05-09T00:27:39.119Z,14.92
2023-05-09T00:30:06.840Z,15.01
2023-05-09T00:32:34.052Z,14.91
2023-05-09T00:35:01.185Z,14.71
2023-05-09T00:37:30.642Z,14.77
2023-05-09T00:39:57.628Z,14.68
2023-05-09T00:42:24.689Z,14.62
2023-05-09T00:44:51.725Z,14.57
2023-05-09T00:47:18.715Z,14.55
2023-05-09T00:49:45.778Z,14.63
2023-05-09T00:52:12.793Z,14.92
2023-05-09T00:54:39.948Z,15.11
2023-05-09T00:57:07.179Z,15.28
2023-05-09T00:59:34.187Z,15.48
2023-05-09T01:02:01.412Z,15.63
2023-05-09T01:04:28.988Z,15.77
2023-05-09T01:07:03.013Z,15.72
2023-05-09T01:09:37.254Z,15.86
2023-05-09T01:12:11.423Z,15.89
2023-05-09T01:15:04.438Z,16.02
2023-05-09T01:17:53.692Z,15.98
2023-05-09T01:20:20.659Z,15.90
2023-05-09T01:22:56.598Z,15.66
2023-05-09T01:25:42.836Z,15.72
2023-05-09T01:28:14.818Z,15.74
2023-05-09T01:30:45.964Z,15.62
2023-05-09T01:33:16.573Z,15.58
2023-05-09T01:35:46.124Z,15.42
2023-05-09T01:38:15.816Z,15.45
2023-05-09T01:40:42.851Z,15.53
2023-05-09T01:43:10.296Z,15.48
2023-05-09T01:45:39.319Z,15.42
2023-05-09T01:48:07.401Z,15.60
2023-05-09T01:50:34.436Z,15.74
2023-05-09T01:53:01.583Z,15.84
2023-05-09T01:55:30.851Z,15.90
2023-05-09T01:57:57.955Z,16.01
2023-05-09T02:00:25.503Z,16.12
2023-05-09T02:02:53.765Z,16.18
2023-05-09T02:05:20.949Z,16.16
2023-05-09T02:07:48.046Z,16.18
2023-05-09T02:10:15.066Z,16.17
2023-05-09T02:12:42.109Z,16.12
2023-05-09T02:15:09.926Z,16.03
2023-05-09T02:17:40.714Z,15.99
2023-05-09T02:20:10.009Z,15.79
2023-05-09T02:22:37.300Z,15.49
2023-05-09T02:25:07.422Z,15.10
2023-05-09T02:27:34.688Z,15.30
2023-05-09T02:30:04.185Z,15.53
2023-05-09T02:32:31.771Z,15.65
2023-05-09T02:34:59.217Z,15.77
2023-05-09T02:37:26.322Z,15.57
2023-05-09T02:39:53.301Z,15.72
2023-05-09T02:42:22.661Z,15.77
2023-05-09T02:44:49.762Z,15.81
2023-05-09T02:47:16.837Z,14.83
2023-05-09T02:49:43.826Z,15.26
2023-05-09T02:52:11.929Z,15.25
2023-05-09T02:54:39.036Z,15.44
2023-05-09T02:57:06.020Z,15.44
2023-05-09T02:59:33.366Z,15.34
2023-05-09T03:02:02.453Z,15.27
2023-05-09T03:04:31.700Z,15.03
2023-05-09T03:06:59.602Z,15.03
2023-05-09T03:09:31.578Z,15.06
2023-05-09T03:11:58.545Z,14.95
2023-05-09T03:14:26.084Z,14.87
2023-05-09T03:16:54.827Z,14.92
2023-05-09T03:19:27.328Z,14.91
2023-05-09T03:21:54.480Z,14.90
2023-05-09T03:24:21.863Z,14.77
2023-05-09T03:26:48.917Z,14.68
2023-05-09T03:29:15.960Z,14.69
2023-05-09T03:31:43.045Z,14.63
2023-05-09T03:34:15.126Z,14.51
2023-05-09T03:36:44.032Z,14.66
2023-05-09T03:39:13.189Z,14.58
2023-05-09T03:41:44.305Z,14.52
2023-05-09T03:44:12.455Z,14.50
2023-05-09T03:46:39.592Z,14.33
2023-05-09T03:49:07.100Z,14.37
2023-05-09T03:51:35.181Z,14.03
2023-05-09T03:54:04.133Z,14.14
2023-05-09T03:56:31.171Z,14.27
2023-05-09T03:58:59.828Z,14.43
2023-05-09T04:01:27.689Z,14.28
2023-05-09T04:03:57.881Z,14.33
2023-05-09T04:06:26.051Z,14.28
2023-05-09T04:08:53.158Z,14.28
2023-05-09T04:11:21.958Z,14.24
2023-05-09T04:13:49.648Z,14.30
2023-05-09T04:16:32.215Z,14.38
2023-05-09T04:18:59.458Z,14.39
2023-05-09T04:21:26.624Z,14.38
2023-05-09T04:23:56.932Z,14.39
2023-05-09T04:26:31.526Z,14.51
2023-05-09T04:29:04.309Z,14.48
2023-05-09T04:31:31.779Z,14.59
2023-05-09T04:33:59.871Z,14.74
2023-05-09T04:36:29.062Z,14.91
2023-05-09T04:38:58.100Z,15.01
2023-05-09T04:41:27.759Z,15.01
2023-05-09T04:43:54.771Z,15.08
2023-05-09T04:46:25.635Z,15.16
2023-05-09T04:48:52.966Z,15.38
2023-05-09T04:51:20.757Z,15.40
2023-05-09T04:53:47.802Z,15.43
2023-05-09T04:56:17.490Z,15.45
2023-05-09T04:58:46.166Z,15.52
2023-05-09T05:01:13.253Z,15.14
2023-05-09T05:03:40.735Z,15.30
2023-05-09T05:06:07.890Z,15.48
2023-05-09T05:08:36.077Z,15.64
2023-05-09T05:11:03.251Z,15.40
2023-05-09T05:13:30.315Z,15.12
2023-05-09T05:16:00.511Z,15.30
2023-05-09T05:18:27.573Z,15.37
2023-05-09T05:20:54.908Z,15.14
2023-05-09T05:23:22.354Z,15.04
2023-05-09T05:25:52.875Z,15.30
2023-05-09T05:28:20.051Z,14.93
2023-05-09T05:30:47.529Z,14.56
2023-05-09T05:33:14.652Z,14.71
2023-05-09T05:35:41.782Z,15.08
2023-05-09T05:38:08.858Z,14.63
2023-05-09T05:40:36.196Z,14.90
2023-05-09T05:43:05.070Z,14.96
2023-05-09T05:45:33.830Z,14.41
2023-05-09T05:48:03.526Z,14.77
2023-05-09T05:50:31.981Z,15.51
2023-05-09T05:52:59.598Z,16.04
2023-05-09T05:55:26.824Z,16.18
2023-05-09T05:57:53.914Z,16.33
2023-05-09T06:00:21.052Z,16.58
2023-05-09T06:02:54.938Z,16.73
2023-05-09T06:05:45.325Z,16.43
2023-05-09T06:08:12.621Z,16.06
2023-05-09T06:10:39.594Z,16.46
2023-05-09T06:13:07.028Z,16.82
2023-05-09T06:15:35.457Z,16.28
2023-05-09T06:18:02.533Z,15.41
2023-05-09T06:20:29.506Z,15.59
2023-05-09T06:22:56.475Z,16.24
2023-05-09T06:25:23.480Z,16.42
2023-05-09T06:27:50.769Z,16.23
2023-05-09T06:30:26.290Z,17.07
2023-05-09T06:32:58.256Z,17.59
2023-05-09T06:35:25.413Z,17.71
2023-05-09T06:37:52.483Z,17.90
2023-05-09T06:40:19.760Z,18.31
2023-05-09T06:42:46.815Z,18.49
2023-05-09T06:45:14.998Z,18.71
2023-05-09T06:47:42.158Z,18.84
2023-05-09T06:50:09.438Z,18.96
2023-05-09T06:52:36.441Z,19.03
2023-05-09T06:55:03.972Z,18.58
2023-05-09T06:57:31.089Z,18.26
2023-05-09T06:59:58.156Z,18.71
2023-05-09T07:02:25.358Z,18.48
2023-05-09T07:04:52.358Z,18.57
2023-05-09T07:07:19.670Z,18.94
2023-05-09T07:09:46.854Z,18.40
2023-05-09T07:12:14.328Z,17.50
2023-05-09T07:14:41.963Z,16.89
2023-05-09T07:17:22.226Z,15.80
2023-05-09T07:19:51.384Z,17.13
2023-05-09T07:22:18.445Z,16.73
2023-05-09T07:24:46.522Z,16.74
2023-05-09T07:27:13.741Z,17.22
2023-05-09T07:29:40.756Z,17.32
2023-05-09T07:32:07.944Z,18.05
2023-05-09T07:34:35.779Z,17.53
2023-05-09T07:37:02.733Z,17.26
2023-05-09T07:39:29.783Z,18.11
2023-05-09T07:41:56.809Z,18.67
2023-05-09T07:44:23.812Z,18.98
2023-05-09T07:46:50.893Z,18.79
2023-05-09T07:49:17.897Z,19.07
2023-05-09T07:51:44.884Z,18.45
2023-05-09T07:54:11.982Z,18.75
2023-05-09T07:56:38.974Z,18.77
2023-05-09T07:59:05.947Z,18.76
2023-05-09T08:01:33.021Z,18.67
2023-05-09T08:04:00.397Z,19.06
2023-05-09T08:06:27.456Z,19.02
2023-05-09T08:08:54.387Z,18.88
2023-05-09T08:11:21.471Z,18.61
2023-05-09T08:13:48.503Z,18.58
2023-05-09T08:16:17.689Z,18.20
2023-05-09T08:18:44.913Z,18.13
2023-05-09T08:21:11.979Z,18.08
2023-05-09T08:23:39.010Z,18.29
2023-05-09T08:26:06.017Z,18.66
2023-05-09T08:28:33.210Z,19.06
2023-05-09T08:31:00.207Z,19.24
2023-05-09T08:33:27.467Z,19.49
2023-05-09T08:35:54.514Z,20.01
2023-05-09T08:38:21.526Z,19.72
2023-05-09T08:40:48.545Z,20.32
2023-05-09T08:43:18.200Z,20.47
2023-05-09T08:45:58.148Z,20.23
2023-05-09T08:48:25.372Z,20.62
2023-05-09T08:50:52.408Z,20.75
2023-05-09T08:53:19.498Z,18.46
2023-05-09T08:55:46.535Z,19.07
2023-05-09T08:58:13.684Z,19.93
2023-05-09T09:00:41.378Z,19.31
2023-05-09T09:03:08.475Z,19.83
2023-05-09T09:05:41.907Z,20.18
2023-05-09T09:08:10.013Z,20.27
2023-05-09T09:10:37.504Z,20.35
2023-05-09T09:13:05.092Z,19.94
2023-05-09T09:15:36.490Z,19.21
2023-05-09T09:18:08.047Z,19.46
2023-05-09T09:20:35.805Z,20.39
2023-05-09T09:23:04.779Z,21.18
2023-05-09T09:25:31.790Z,20.27
2023-05-09T09:27:58.921Z,20.23
2023-05-09T09:30:26.720Z,20.46
2023-05-09T09:32:53.781Z,20.70
2023-05-09T09:35:20.962Z,20.43
2023-05-09T09:37:48.193Z,18.61
2023-05-09T09:40:15.478Z,18.78
2023-05-09T09:42:46.120Z,20.13
2023-05-09T09:45:15.142Z,18.63
2023-05-09T09:47:47.008Z,18.65
2023-05-09T09:50:15.848Z,19.94
2023-05-09T09:52:52.938Z,20.64
2023-05-09T09:55:20.179Z,20.65
2023-05-09T09:57:48.271Z,18.91
2023-05-09T10:00:16.542Z,18.71
2023-05-09T10:02:57.322Z,20.02
2023-05-09T10:05:28.976Z,19.77
2023-05-09T10:08:03.823Z,19.47
2023-05-09T10:10:32.082Z,19.46
2023-05-09T10:13:03.031Z,20.75
2023-05-09T10:15:38.520Z,20.89
2023-05-09T10:18:14.688Z,21.34
2023-05-09T10:20:42.221Z,22.14
2023-05-09T10:23:09.209Z,22.48
2023-05-09T10:25:43.954Z,21.02
2023-05-09T10:28:12.207Z,20.32
2023-05-09T10:31:01.869Z,19.61
2023-05-09T10:33:36.822Z,18.97
2023-05-09T10:36:04.098Z,18.69
2023-05-09T10:38:31.301Z,19.69
2023-05-09T10:40:58.346Z,20.88
2023-05-09T10:43:25.419Z,21.66
2023-05-09T10:45:52.713Z,22.00
2023-05-09T10:48:19.816Z,21.45
2023-05-09T10:50:47.152Z,21.97
2023-05-09T10:53:15.360Z,21.84
2023-05-09T10:56:02.085Z,22.64
2023-05-09T10:58:40.831Z,21.22
2023-05-09T11:01:08.058Z,21.58
2023-05-09T11:03:54.781Z,22.30
2023-05-09T11:06:42.853Z,22.48
2023-05-09T11:09:41.669Z,20.73
2023-05-09T11:12:12.268Z,20.77
2023-05-09T11:14:40.861Z,21.68
2023-05-09T11:17:09.677Z,21.70
2023-05-09T11:19:45.767Z,22.39
2023-05-09T11:22:29.300Z,22.69
2023-05-09T11:25:25.246Z,22.48
2023-05-09T11:27:52.413Z,21.96
2023-05-09T11:30:19.985Z,22.49
2023-05-09T11:32:55.881Z,23.13
2023-05-09T11:35:23.508Z,21.59
2023-05-09T11:37:51.344Z,21.80
2023-05-09T11:40:19.413Z,22.19
2023-05-09T11:42:58.467Z,23.00
2023-05-09T11:45:27.978Z,23.36
2023-05-09T11:47:54.988Z,23.38
2023-05-09T11:50:22.114Z,23.13
2023-05-09T11:52:49.213Z,23.46
2023-05-09T11:55:19.354Z,24.08
2023-05-09T11:57:49.061Z,24.24
2023-05-09T12:00:17.696Z,23.86
2023-05-09T12:02:46.071Z,24.32
2023-05-09T12:05:14.755Z,24.70
2023-05-09T12:07:42.306Z,24.33
2023-05-09T12:10:10.437Z,24.35
2023-05-09T12:12:41.805Z,24.39
2023-05-09T12:15:09.306Z,24.79
2023-05-09T12:17:36.445Z,25.09
2023-05-09T12:20:05.696Z,24.11
2023-05-09T12:22:33.064Z,23.22
2023-05-09T12:25:01.788Z,22.52
2023-05-09T12:27:29.495Z,21.52
2023-05-09T12:29:56.479Z,22.34
2023-05-09T12:32:23.589Z,22.51
2023-05-09T12:34:52.062Z,23.07
2023-05-09T12:37:19.607Z,23.86
2023-05-09T12:40:04.269Z,23.83
2023-05-09T12:42:35.045Z,24.49
2023-05-09T12:45:02.633Z,24.93
2023-05-09T12:47:31.885Z,23.99
2023-05-09T12:50:03.080Z,23.73
2023-05-09T12:52:41.686Z,22.98
2023-05-09T12:55:14.449Z,23.03
2023-05-09T12:57:43.013Z,23.03
2023-05-09T13:00:10.479Z,23.98
2023-05-09T13:02:39.164Z,24.21
2023-05-09T13:05:07.056Z,24.63
2023-05-09T13:07:50.917Z,24.67
2023-05-09T13:10:24.018Z,24.85
2023-05-09T13:12:51.501Z,24.57
2023-05-09T13:15:22.705Z,24.53
2023-05-09T13:17:50.749Z,24.71
2023-05-09T13:20:18.526Z,22.69
2023-05-09T13:22:46.033Z,23.18
2023-05-09T13:25:13.071Z,23.89
2023-05-09T13:27:40.088Z,24.18
2023-05-09T13:30:07.817Z,24.42
2023-05-09T13:32:36.739Z,24.80
2023-05-09T13:35:06.848Z,24.44
2023-05-09T13:37:35.591Z,24.96
2023-05-09T13:40:03.080Z,24.67
2023-05-09T13:42:30.067Z,24.41
2023-05-09T13:44:57.092Z,24.14
2023-05-09T13:47:24.154Z,24.00
2023-05-09T13:49:52.262Z,24.26
2023-05-09T13:52:19.639Z,24.57
2023-05-09T13:54:47.319Z,24.91
2023-05-09T13:57:14.481Z,25.17
2023-05-09T13:59:41.703Z,24.73
2023-05-09T14:02:08.806Z,23.58
2023-05-09T14:04:36.168Z,24.48
2023-05-09T14:07:03.255Z,23.58
2023-05-09T14:09:30.229Z,23.96
2023-05-09T14:11:57.556Z,24.42
2023-05-09T14:14:24.927Z,24.78
2023-05-09T14:16:52.229Z,24.89
2023-05-09T14:19:19.279Z,24.77
2023-05-09T14:21:49.116Z,24.84
2023-05-09T14:24:16.591Z,24.49
2023-05-09T14:26:43.926Z,24.30
2023-05-09T14:29:11.043Z,24.38
2023-05-09T14:31:38.365Z,24.40
2023-05-09T14:34:06.246Z,24.61
2023-05-09T14:36:33.254Z,24.09
2023-05-09T14:39:00.296Z,22.62
2023-05-09T14:41:27.567Z,23.67
2023-05-09T14:43:54.565Z,24.30
2023-05-09T14:46:21.727Z,24.72
2023-05-09T14:48:48.740Z,25.06
2023-05-09T14:51:15.749Z,24.07
2023-05-09T14:53:42.782Z,23.19
2023-05-09T14:56:11.602Z,24.12
2023-05-09T14:58:38.711Z,24.66
2023-05-09T15:01:05.815Z,22.97
2023-05-09T15:03:32.856Z,22.92
2023-05-09T15:05:59.900Z,23.02
2023-05-09T15:08:27.163Z,23.02
2023-05-09T15:10:54.219Z,23.83
2023-05-09T15:13:21.782Z,23.92
2023-05-09T15:15:49.016Z,22.89
2023-05-09T15:18:18.473Z,22.76
2023-05-09T15:20:45.582Z,22.98
2023-05-09T15:23:13.214Z,23.51
2023-05-09T15:25:42.957Z,23.84
2023-05-09T15:28:09.937Z,23.99
2023-05-09T15:30:38.936Z,24.23
2023-05-09T15:33:06.449Z,23.67
2023-05-09T15:35:33.627Z,23.50
2023-05-09T15:38:00.611Z,23.57
2023-05-09T15:40:28.325Z,23.66
2023-05-09T15:42:55.314Z,23.63
2023-05-09T15:45:22.335Z,23.02
2023-05-09T15:47:49.332Z,22.07
2023-05-09T15:50:16.707Z,22.58
2023-05-09T15:52:43.964Z,23.01
2023-05-09T15:55:13.013Z,22.85
2023-05-09T15:57:40.144Z,22.44
2023-05-09T16:00:07.671Z,22.55
2023-05-09T16:02:39.741Z,23.06
2023-05-09T16:05:07.082Z,23.41
2023-05-09T16:07:35.650Z,23.64
2023-05-09T16:10:03.241Z,23.16
2023-05-09T16:12:32.902Z,22.92
2023-05-09T16:15:00.197Z,23.53
2023-05-09T16:17:27.421Z,23.36
2023-05-09T16:19:55.226Z,23.46
2023-05-09T16:22:22.709Z,23.57
2023-05-09T16:24:49.656Z,23.50
2023-05-09T16:27:17.305Z,22.82
2023-05-09T16:29:44.326Z,23.13
2023-05-09T16:32:11.393Z,22.10
2023-05-09T16:34:38.508Z,21.93
2023-05-09T16:37:06.280Z,22.10
2023-05-09T16:39:33.296Z,21.59
2023-05-09T16:42:00.602Z,22.12
2023-05-09T16:44:27.645Z,22.66
2023-05-09T16:46:54.889Z,22.90
2023-05-09T16:49:22.138Z,23.35
2023-05-09T16:51:49.175Z,22.31
2023-05-09T16:54:16.170Z,22.31
2023-05-09T16:56:43.302Z,21.78
2023-05-09T16:59:10.244Z,22.27
2023-05-09T17:01:37.803Z,22.85
2023-05-09T17:04:06.918Z,22.72
2023-05-09T17:06:34.369Z,22.47
2023-05-09T17:09:01.408Z,22.49
2023-05-09T17:11:29.185Z,22.64
2023-05-09T17:13:56.209Z,22.84
2023-05-09T17:16:23.242Z,22.89
2023-05-09T17:18:50.378Z,22.92
2023-05-09T17:21:17.382Z,23.05
2023-05-09T17:23:44.575Z,23.26
2023-05-09T17:26:11.586Z,23.25
2023-05-09T17:28:38.567Z,23.24
2023-05-09T17:31:05.698Z,23.20
2023-05-09T17:33:32.751Z,23.18
2023-05-09T17:36:00.185Z,22.86
2023-05-09T17:38:27.194Z,22.02
2023-05-09T17:40:54.277Z,22.22
2023-05-09T17:43:22.330Z,22.56
2023-05-09T17:45:49.376Z,22.31
2023-05-09T17:48:16.468Z,22.08
2023-05-09T17:50:43.948Z,22.24
2023-05-09T17:53:10.960Z,22.51
2023-05-09T17:55:37.953Z,22.37
2023-05-09T17:58:05.032Z,22.44
2023-05-09T18:00:32.192Z,22.73
2023-05-09T18:03:00.775Z,22.64
2023-05-09T18:05:28.059Z,22.85
2023-05-09T18:07:55.325Z,22.91
2023-05-09T18:10:22.329Z,23.17
2023-05-09T18:12:49.657Z,23.43
2023-05-09T18:15:16.693Z,23.55
2023-05-09T18:17:44.199Z,23.41
2023-05-09T18:20:11.648Z,23.25
2023-05-09T18:22:38.611Z,23.03
2023-05-09T18:25:05.981Z,22.32
2023-05-09T18:27:32.948Z,22.52
2023-05-09T18:30:00.031Z,22.41
2023-05-09T18:32:27.126Z,22.68
2023-05-09T18:34:54.205Z,22.75
2023-05-09T18:37:22.834Z,23.00
2023-05-09T18:39:49.934Z,22.98
2023-05-09T18:42:17.049Z,23.02
2023-05-09T18:44:44.336Z,22.96
2023-05-09T18:47:12.114Z,22.95
2023-05-09T18:49:39.417Z,22.97
2023-05-09T18:52:06.575Z,22.85
2023-05-09T18:54:33.692Z,22.91
2023-05-09T18:57:01.680Z,22.61
2023-05-09T18:59:28.890Z,22.15
2023-05-09T19:01:55.981Z,22.16
2023-05-09T19:04:23.138Z,21.99
2023-05-09T19:06:50.315Z,21.85
2023-05-09T19:09:18.139Z,21.66
2023-05-09T19:11:48.480Z,21.76
2023-05-09T19:14:15.803Z,21.32
2023-05-09T19:16:43.200Z,21.11
2023-05-09T19:19:10.309Z,21.02
2023-05-09T19:21:37.606Z,21.06
2023-05-09T19:24:06.762Z,20.85
2023-05-09T19:26:34.647Z,21.20
2023-05-09T19:29:04.155Z,21.21
2023-05-09T19:31:31.417Z,21.59
2023-05-09T19:33:58.663Z,21.24
2023-05-09T19:36:25.789Z,21.34
2023-05-09T19:38:53.159Z,21.45
2023-05-09T19:41:20.363Z,21.62
2023-05-09T19:43:50.809Z,21.63
2023-05-09T19:46:19.324Z,21.73
2023-05-09T19:48:46.545Z,21.78
2023-05-09T19:51:15.788Z,21.86
2023-05-09T19:53:43.305Z,21.91
2023-05-09T19:56:10.934Z,22.02
2023-05-09T19:58:38.057Z,22.17
2023-05-09T20:01:08.217Z,22.08
2023-05-09T20:03:37.173Z,21.74
2023-05-09T20:06:04.487Z,21.18
2023-05-09T20:08:31.846Z,21.20
2023-05-09T20:11:00.200Z,20.72
2023-05-09T20:13:27.798Z,20.16
2023-05-09T20:15:55.344Z,20.01
2023-05-09T20:18:22.549Z,19.93
2023-05-09T20:20:49.964Z,19.93
2023-05-09T20:23:17.197Z,20.19
2023-05-09T20:25:44.336Z,20.42
2023-05-09T20:28:12.313Z,20.16
2023-05-09T20:30:39.426Z,20.30
2023-05-09T20:33:06.593Z,20.52
2023-05-09T20:35:34.041Z,20.12
2023-05-09T20:38:01.368Z,20.12
2023-05-09T20:40:28.784Z,20.39
2023-05-09T20:42:55.839Z,20.60
2023-05-09T20:45:22.989Z,20.64
2023-05-09T20:47:50.124Z,20.57
2023-05-09T20:50:17.525Z,20.75
2023-05-09T20:52:45.150Z,20.78
2023-05-09T20:55:12.529Z,20.63
2023-05-09T20:57:39.642Z,20.89
2023-05-09T21:00:07.700Z,20.46
2023-05-09T21:02:34.966Z,20.62
2023-05-09T21:05:02.035Z,20.76
2023-05-09T21:07:30.682Z,20.39
2023-05-09T21:09:58.239Z,20.49
2023-05-09T21:12:25.222Z,20.34
2023-05-09T21:14:52.420Z,20.24
2023-05-09T21:17:19.678Z,19.96
2023-05-09T21:19:46.672Z,19.24
2023-05-09T21:22:13.852Z,19.88
2023-05-09T21:24:40.950Z,20.20
2023-05-09T21:27:07.967Z,20.54
2023-05-09T21:29:35.122Z,20.69
2023-05-09T21:32:02.163Z,20.86
2023-05-09T21:34:29.151Z,20.98
2023-05-09T21:36:56.182Z,20.87
2023-05-09T21:39:23.193Z,20.69
2023-05-09T21:41:50.177Z,20.65
2023-05-09T21:44:17.275Z,20.78
2023-05-09T21:46:46.470Z,20.81
2023-05-09T21:49:16.742Z,20.90
2023-05-09T21:51:43.862Z,20.91
2023-05-09T21:54:11.139Z,21.08
2023-05-09T21:56:38.210Z,21.19
2023-05-09T21:59:05.241Z,21.24
2023-05-09T22:01:32.254Z,21.18
2023-05-09T22:03:59.402Z,20.84
2023-05-09T22:06:26.483Z,20.62
2023-05-09T22:08:53.527Z,20.43
2023-05-09T22:11:20.621Z,20.10
2023-05-09T22:13:47.618Z,19.96
2023-05-09T22:16:14.733Z,20.07
2023-05-09T22:18:41.775Z,20.22
2023-05-09T22:21:08.815Z,20.32
2023-05-09T22:23:35.788Z,20.28
2023-05-09T22:26:06.468Z,20.31
2023-05-09T22:28:33.513Z,20.13
2023-05-09T22:31:00.558Z,19.96
2023-05-09T22:33:27.965Z,20.07
2023-05-09T22:35:54.941Z,20.00
2023-05-09T22:38:21.986Z,19.93
2023-05-09T22:40:48.930Z,19.40
2023-05-09T22:43:15.993Z,19.41
2023-05-09T22:45:43.883Z,19.63
2023-05-09T22:48:11.015Z,19.79
2023-05-09T22:50:38.113Z,19.86
2023-05-09T22:53:05.106Z,19.95
2023-05-09T22:55:32.201Z,20.02
2023-05-09T22:57:59.194Z,20.11
2023-05-09T23:00:26.197Z,19.96
2023-05-09T23:02:53.252Z,20.10
2023-05-09T23:05:21.366Z,20.09
2023-05-09T23:07:48.549Z,20.19
2023-05-09T23:10:15.854Z,20.15
2023-05-09T23:12:43.114Z,20.26
2023-05-09T23:15:10.509Z,20.20
2023-05-09T23:17:37.511Z,20.14
2023-05-09T23:20:05.098Z,20.16
2023-05-09T23:22:32.302Z,20.16
2023-05-09T23:25:00.893Z,20.25
2023-05-09T23:27:28.346Z,20.32
2023-05-09T23:29:55.490Z,20.37
2023-05-09T23:32:22.597Z,20.46
2023-05-09T23:34:49.573Z,20.45
2023-05-09T23:37:16.947Z,20.43
2023-05-09T23:39:43.976Z,20.39
2023-05-09T23:42:12.447Z,20.40
2023-05-09T23:44:39.393Z,20.34
2023-05-09T23:47:06.465Z,20.24
2023-05-09T23:49:33.495Z,20.08
2023-05-09T23:52:00.485Z,20.03
2023-05-09T23:54:27.530Z,19.69
2023-05-09T23:56:56.692Z,19.92
2023-05-09T23:59:23.760Z,19.90
